Ocean Celebrity — HOSZ — position and weather

sailwx.info

Track history (hours):
 
Tides and Currents Weather Stations Pressure Air Temp Water Temp Dewpoint Dewpoint Depression Visibility Wind Speed Wind Dir Waves Ship Positions

Ocean Celebrity

Last reported at 2016-Aug-20 00:31 UTC. Time now 2016-Aug-27 06:27 UTC.
Position N 01°58' E 102°15'.

Length 289 m; draft 17.8 m.

Type: Cargo ship. MMSI: 356712000.

Date/timePositionNaut miles runAvg speedWind from/ knotsBaromVisibWave heightAir tempDewpointWater temp
2016-Aug-20 00:31N 01°58' E 102°15'1111.1
2016-Aug-19 23:33N 01°53' E 102°24'1312.4
2016-Aug-19 22:30N 01°47' E 102°36'1313.4
2016-Aug-19 21:32N 01°41' E 102°47'6911.5
2016-Aug-19 15:33N 01°11' E 103°49'8 8.1
2016-Aug-19 14:33N 01°14' E 103°57'7 6.8
2016-Aug-19 13:32N 01°17' E 104°03'0 0.0
2016-Aug-19 11:15N 01°17' E 104°03'0 0.1
2016-Aug-19 09:21N 01°17' E 104°03'0 0.1
2016-Aug-19 06:33N 01°17' E 104°03'0 0.1
2016-Aug-19 04:21N 01°18' E 104°03'0 0.2
2016-Aug-19 03:33N 01°18' E 104°03'0 0.0
2016-Aug-19 02:09N 01°18' E 104°03'0 0.2
2016-Aug-19 01:30N 01°18' E 104°03'0 0.2
2016-Aug-19 00:33N 01°18' E 104°03'0 0.0
2016-Aug-18 23:24N 01°18' E 104°03'0 0.0
2016-Aug-18 16:06N 01°18' E 104°03'0 0.4
2016-Aug-18 15:09N 01°18' E 104°03'0 0.3
2016-Aug-18 14:33N 01°17' E 104°03'4 4.0
2016-Aug-18 13:32N 01°18' E 104°07'1 1.0
2016-Aug-18 12:34N 01°17' E 104°08'  
Track history (hours):
 
Tides and Currents Weather Stations Pressure Air Temp Water Temp Dewpoint Dewpoint Depression Visibility Wind Speed Wind Dir Waves Ship Positions

Ocean Celebrity

Last reported at 2016-Aug-20 00:31 UTC. Time now 2016-Aug-27 06:27 UTC.
Position N 01°58' E 102°15'.

Length 289 m; draft 17.8 m.

Type: Cargo ship. MMSI: 356712000.

Date/timePositionNaut miles runAvg speedWind from/ knotsBaromVisibWave heightAir tempDewpointWater temp
2016-Aug-20 00:31N 01°58' E 102°15'1111.1
2016-Aug-19 23:33N 01°53' E 102°24'1312.4
2016-Aug-19 22:30N 01°47' E 102°36'1313.4
2016-Aug-19 21:32N 01°41' E 102°47'6911.5
2016-Aug-19 15:33N 01°11' E 103°49'8 8.1
2016-Aug-19 14:33N 01°14' E 103°57'7 6.8
2016-Aug-19 13:32N 01°17' E 104°03'0 0.0
2016-Aug-19 11:15N 01°17' E 104°03'0 0.1
2016-Aug-19 09:21N 01°17' E 104°03'0 0.1
2016-Aug-19 06:33N 01°17' E 104°03'0 0.1
2016-Aug-19 04:21N 01°18' E 104°03'0 0.2
2016-Aug-19 03:33N 01°18' E 104°03'0 0.0
2016-Aug-19 02:09N 01°18' E 104°03'0 0.2
2016-Aug-19 01:30N 01°18' E 104°03'0 0.2
2016-Aug-19 00:33N 01°18' E 104°03'0 0.0
2016-Aug-18 23:24N 01°18' E 104°03'0 0.0
2016-Aug-18 16:06N 01°18' E 104°03'0 0.4
2016-Aug-18 15:09N 01°18' E 104°03'0 0.3
2016-Aug-18 14:33N 01°17' E 104°03'4 4.0
2016-Aug-18 13:32N 01°18' E 104°07'1 1.0
2016-Aug-18 12:34N 01°17' E 104°08'  

Dump ship's entire track history